sensor_id;sensor_type;location;lat;lon;timestamp;pressure;altitude;pressure_sealevel;temperature;humidity
11011;BME280;5558;42.702;23.178;2023-09-08T00:02:27;94198.13;;;17.73;100.00
11011;BME280;5558;42.702;23.178;2023-09-08T00:04:54;94198.22;;;17.68;100.00
11011;BME280;5558;42.702;23.178;2023-09-08T00:07:21;94198.72;;;17.70;100.00
11011;BME280;5558;42.702;23.178;2023-09-08T00:09:48;94196.16;;;17.65;100.00
11011;BME280;5558;42.702;23.178;2023-09-08T00:12:16;94197.94;;;17.69;100.00
11011;BME280;5558;42.702;23.178;2023-09-08T00:14:43;94199.31;;;17.67;100.00
11011;BME280;5558;42.702;23.178;2023-09-08T00:17:10;94188.13;;;17.65;100.00
11011;BME280;5558;42.702;23.178;2023-09-08T00:19:36;94194.56;;;17.64;100.00
11011;BME280;5558;42.702;23.178;2023-09-08T00:22:04;94195.13;;;17.61;100.00
11011;BME280;5558;42.702;23.178;2023-09-08T00:24:32;94193.56;;;17.60;100.00
11011;BME280;5558;42.702;23.178;2023-09-08T00:26:59;94186.22;;;17.52;100.00
11011;BME280;5558;42.702;23.178;2023-09-08T00:29:27;94191.25;;;17.53;100.00
11011;BME280;5558;42.702;23.178;2023-09-08T00:31:54;94187.38;;;17.46;100.00
11011;BME280;5558;42.702;23.178;2023-09-08T00:34:20;94182.81;;;17.46;100.00
11011;BME280;5558;42.702;23.178;2023-09-08T00:36:47;94186.66;;;17.40;100.00
11011;BME280;5558;42.702;23.178;2023-09-08T00:39:14;94184.53;;;17.37;100.00
11011;BME280;5558;42.702;23.178;2023-09-08T00:41:40;94178.50;;;17.32;100.00
11011;BME280;5558;42.702;23.178;2023-09-08T00:44:07;94182.84;;;17.28;100.00
11011;BME280;5558;42.702;23.178;2023-09-08T00:46:35;94193.91;;;17.21;100.00
11011;BME280;5558;42.702;23.178;2023-09-08T00:49:02;94181.38;;;17.17;100.00
11011;BME280;5558;42.702;23.178;2023-09-08T00:51:29;94193.78;;;17.13;100.00
11011;BME280;5558;42.702;23.178;2023-09-08T00:53:56;94187.41;;;17.08;100.00
11011;BME280;5558;42.702;23.178;2023-09-08T00:56:23;94177.28;;;17.05;100.00
11011;BME280;5558;42.702;23.178;2023-09-08T00:58:50;94171.00;;;16.96;100.00
11011;BME280;5558;42.702;23.178;2023-09-08T01:01:17;94169.81;;;16.89;100.00
11011;BME280;5558;42.702;23.178;2023-09-08T01:03:45;94174.63;;;16.87;100.00
11011;BME280;5558;42.702;23.178;2023-09-08T01:06:12;94176.50;;;16.86;100.00
11011;BME280;5558;42.702;23.178;2023-09-08T01:08:39;94167.13;;;16.89;100.00
11011;BME280;5558;42.702;23.178;2023-09-08T01:11:06;94171.38;;;16.90;100.00
11011;BME280;5558;42.702;23.178;2023-09-08T01:13:33;94171.66;;;16.88;100.00
11011;BME280;5558;42.702;23.178;2023-09-08T01:16:01;94169.59;;;16.85;100.00
11011;BME280;5558;42.702;23.178;2023-09-08T01:18:27;94149.41;;;16.74;100.00
11011;BME280;5558;42.702;23.178;2023-09-08T01:21:14;94166.63;;;16.87;100.00
11011;BME280;5558;42.702;23.178;2023-09-08T01:23:59;94165.59;;;16.83;100.00
11011;BME280;5558;42.702;23.178;2023-09-08T01:26:34;94174.41;;;16.83;100.00
11011;BME280;5558;42.702;23.178;2023-09-08T01:29:02;94173.06;;;16.86;100.00
11011;BME280;5558;42.702;23.178;2023-09-08T01:31:31;94166.69;;;16.82;100.00
11011;BME280;5558;42.702;23.178;2023-09-08T01:34:00;94163.72;;;16.83;100.00
11011;BME280;5558;42.702;23.178;2023-09-08T01:36:27;94167.78;;;16.81;100.00
11011;BME280;5558;42.702;23.178;2023-09-08T01:38:53;94157.56;;;16.83;100.00
11011;BME280;5558;42.702;23.178;2023-09-08T01:41:20;94154.69;;;16.79;100.00
11011;BME280;5558;42.702;23.178;2023-09-08T01:43:48;94149.94;;;16.76;100.00
11011;BME280;5558;42.702;23.178;2023-09-08T01:46:15;94152.59;;;16.76;100.00
11011;BME280;5558;42.702;23.178;2023-09-08T01:48:41;94153.09;;;16.78;100.00
11011;BME280;5558;42.702;23.178;2023-09-08T01:51:08;94118.81;;;16.48;100.00
11011;BME280;5558;42.702;23.178;2023-09-08T01:53:35;94161.28;;;16.68;100.00
11011;BME280;5558;42.702;23.178;2023-09-08T01:56:01;94146.19;;;16.59;100.00
11011;BME280;5558;42.702;23.178;2023-09-08T01:58:28;94156.53;;;16.65;100.00
11011;BME280;5558;42.702;23.178;2023-09-08T02:00:57;94149.00;;;16.67;100.00
11011;BME280;5558;42.702;23.178;2023-09-08T02:03:28;94159.69;;;16.67;100.00
11011;BME280;5558;42.702;23.178;2023-09-08T02:05:55;94149.78;;;16.68;100.00
11011;BME280;5558;42.702;23.178;2023-09-08T02:08:21;94151.19;;;16.65;100.00
11011;BME280;5558;42.702;23.178;2023-09-08T02:10:48;94115.38;;;16.43;100.00
11011;BME280;5558;42.702;23.178;2023-09-08T02:13:15;94145.59;;;16.62;100.00
11011;BME280;5558;42.702;23.178;2023-09-08T02:15:41;94141.41;;;16.56;100.00
11011;BME280;5558;42.702;23.178;2023-09-08T02:18:09;94149.22;;;16.71;100.00
11011;BME280;5558;42.702;23.178;2023-09-08T02:20:37;94146.03;;;16.69;100.00
11011;BME280;5558;42.702;23.178;2023-09-08T02:23:05;94142.34;;;16.65;100.00
11011;BME280;5558;42.702;23.178;2023-09-08T02:25:32;94145.53;;;16.67;100.00
11011;BME280;5558;42.702;23.178;2023-09-08T02:27:58;94150.06;;;16.66;100.00
11011;BME280;5558;42.702;23.178;2023-09-08T02:30:25;94143.44;;;16.64;100.00
11011;BME280;5558;42.702;23.178;2023-09-08T02:32:52;94143.94;;;16.66;100.00
11011;BME280;5558;42.702;23.178;2023-09-08T02:35:22;94143.75;;;16.62;100.00
11011;BME280;5558;42.702;23.178;2023-09-08T02:37:49;94145.69;;;16.57;100.00
11011;BME280;5558;42.702;23.178;2023-09-08T02:40:16;94147.03;;;16.54;100.00
11011;BME280;5558;42.702;23.178;2023-09-08T02:42:43;94149.63;;;16.59;100.00
11011;BME280;5558;42.702;23.178;2023-09-08T02:45:10;94140.31;;;16.38;100.00
11011;BME280;5558;42.702;23.178;2023-09-08T02:47:36;94155.66;;;16.28;100.00
11011;BME280;5558;42.702;23.178;2023-09-08T02:50:04;94149.47;;;16.09;100.00
11011;BME280;5558;42.702;23.178;2023-09-08T02:52:32;94154.78;;;15.90;100.00
11011;BME280;5558;42.702;23.178;2023-09-08T02:54:59;94162.19;;;15.74;100.00
11011;BME280;5558;42.702;23.178;2023-09-08T02:57:25;94163.00;;;15.70;100.00
11011;BME280;5558;42.702;23.178;2023-09-08T02:59:52;94168.41;;;15.65;100.00
11011;BME280;5558;42.702;23.178;2023-09-08T03:02:21;94169.78;;;15.62;100.00
11011;BME280;5558;42.702;23.178;2023-09-08T03:04:48;94172.22;;;15.59;100.00
11011;BME280;5558;42.702;23.178;2023-09-08T03:07:15;94171.94;;;15.60;100.00
11011;BME280;5558;42.702;23.178;2023-09-08T03:09:43;94173.56;;;15.56;100.00
11011;BME280;5558;42.702;23.178;2023-09-08T03:12:10;94180.31;;;15.49;100.00
11011;BME280;5558;42.702;23.178;2023-09-08T03:14:36;94177.66;;;15.49;100.00
11011;BME280;5558;42.702;23.178;2023-09-08T03:17:03;94173.44;;;15.43;100.00
11011;BME280;5558;42.702;23.178;2023-09-08T03:19:30;94167.31;;;15.42;100.00
11011;BME280;5558;42.702;23.178;2023-09-08T03:21:57;94173.72;;;15.41;100.00
11011;BME280;5558;42.702;23.178;2023-09-08T03:24:23;94140.50;;;15.24;100.00
11011;BME280;5558;42.702;23.178;2023-09-08T03:26:51;94179.28;;;15.45;100.00
11011;BME280;5558;42.702;23.178;2023-09-08T03:29:18;94185.47;;;15.40;100.00
11011;BME280;5558;42.702;23.178;2023-09-08T03:31:45;94185.19;;;15.37;100.00
11011;BME280;5558;42.702;23.178;2023-09-08T03:34:11;94184.72;;;15.30;100.00
11011;BME280;5558;42.702;23.178;2023-09-08T03:36:38;94159.63;;;15.02;100.00
11011;BME280;5558;42.702;23.178;2023-09-08T03:39:05;94186.75;;;15.09;100.00
11011;BME280;5558;42.702;23.178;2023-09-08T03:41:34;94195.31;;;15.06;100.00
11011;BME280;5558;42.702;23.178;2023-09-08T03:44:02;94203.16;;;14.93;100.00
11011;BME280;5558;42.702;23.178;2023-09-08T03:46:29;94189.66;;;14.79;100.00
11011;BME280;5558;42.702;23.178;2023-09-08T03:48:56;94201.22;;;14.59;100.00
11011;BME280;5558;42.702;23.178;2023-09-08T03:51:26;94211.16;;;14.49;100.00
11011;BME280;5558;42.702;23.178;2023-09-08T03:53:53;94216.25;;;14.40;100.00
11011;BME280;5558;42.702;23.178;2023-09-08T03:56:19;94221.34;;;14.32;100.00
11011;BME280;5558;42.702;23.178;2023-09-08T03:58:47;94237.06;;;14.33;100.00
11011;BME280;5558;42.702;23.178;2023-09-08T04:01:15;94254.13;;;14.32;100.00
11011;BME280;5558;42.702;23.178;2023-09-08T04:03:42;94259.44;;;14.37;100.00
11011;BME280;5558;42.702;23.178;2023-09-08T04:06:09;94271.09;;;14.41;100.00
11011;BME280;5558;42.702;23.178;2023-09-08T04:08:35;94276.72;;;14.40;100.00
11011;BME280;5558;42.702;23.178;2023-09-08T04:11:02;94277.78;;;14.44;100.00
11011;BME280;5558;42.702;23.178;2023-09-08T04:13:29;94267.84;;;14.54;100.00
11011;BME280;5558;42.702;23.178;2023-09-08T04:15:55;94264.88;;;14.66;100.00
11011;BME280;5558;42.702;23.178;2023-09-08T04:18:23;94260.25;;;14.82;100.00
11011;BME280;5558;42.702;23.178;2023-09-08T04:20:50;94242.84;;;14.94;100.00
11011;BME280;5558;42.702;23.178;2023-09-08T04:23:17;94236.81;;;15.17;100.00
11011;BME280;5558;42.702;23.178;2023-09-08T04:25:44;94226.28;;;15.36;100.00
11011;BME280;5558;42.702;23.178;2023-09-08T04:28:10;94221.81;;;15.60;100.00
11011;BME280;5558;42.702;23.178;2023-09-08T04:30:37;94215.63;;;15.64;100.00
11011;BME280;5558;42.702;23.178;2023-09-08T04:33:04;94217.31;;;15.84;100.00
11011;BME280;5558;42.702;23.178;2023-09-08T04:35:32;94204.78;;;16.32;100.00
11011;BME280;5558;42.702;23.178;2023-09-08T04:37:59;94196.06;;;17.19;100.00
11011;BME280;5558;42.702;23.178;2023-09-08T04:40:25;94196.50;;;18.04;100.00
11011;BME280;5558;42.702;23.178;2023-09-08T04:42:52;94195.50;;;19.03;100.00
11011;BME280;5558;42.702;23.178;2023-09-08T04:45:19;94189.38;;;20.00;100.00
11011;BME280;5558;42.702;23.178;2023-09-08T04:47:45;94175.91;;;21.29;100.00
11011;BME280;5558;42.702;23.178;2023-09-08T04:50:13;94186.06;;;22.59;100.00
11011;BME280;5558;42.702;23.178;2023-09-08T04:52:41;94184.84;;;23.47;95.71
11011;BME280;5558;42.702;23.178;2023-09-08T04:55:09;94187.00;;;23.86;83.07
11011;BME280;5558;42.702;23.178;2023-09-08T04:57:35;94182.16;;;23.92;81.19
11011;BME280;5558;42.702;23.178;2023-09-08T05:00:03;94186.78;;;24.36;78.52
11011;BME280;5558;42.702;23.178;2023-09-08T05:02:29;94192.16;;;25.33;71.17
11011;BME280;5558;42.702;23.178;2023-09-08T05:04:56;94186.50;;;26.20;65.06
11011;BME280;5558;42.702;23.178;2023-09-08T05:07:23;94185.50;;;27.06;58.91
11011;BME280;5558;42.702;23.178;2023-09-08T05:09:51;94183.03;;;27.71;55.34
11011;BME280;5558;42.702;23.178;2023-09-08T05:12:17;94184.78;;;28.20;52.97
11011;BME280;5558;42.702;23.178;2023-09-08T05:14:44;94182.13;;;28.92;50.11
11011;BME280;5558;42.702;23.178;2023-09-08T05:17:11;94182.13;;;29.44;48.21
11011;BME280;5558;42.702;23.178;2023-09-08T05:19:37;94181.81;;;30.12;45.11
11011;BME280;5558;42.702;23.178;2023-09-08T05:22:05;94192.41;;;30.53;44.10
11011;BME280;5558;42.702;23.178;2023-09-08T05:24:31;94184.31;;;30.64;42.89
11011;BME280;5558;42.702;23.178;2023-09-08T05:26:59;94177.41;;;30.37;43.44
11011;BME280;5558;42.702;23.178;2023-09-08T05:29:26;94183.16;;;29.92;43.56
11011;BME280;5558;42.702;23.178;2023-09-08T05:31:53;94186.28;;;29.64;44.75
11011;BME280;5558;42.702;23.178;2023-09-08T05:34:19;94194.22;;;29.17;45.75
11011;BME280;5558;42.702;23.178;2023-09-08T05:36:46;94185.59;;;28.43;48.02
11011;BME280;5558;42.702;23.178;2023-09-08T05:39:14;94191.34;;;28.38;48.22
11011;BME280;5558;42.702;23.178;2023-09-08T05:41:43;94194.91;;;28.42;48.04
11011;BME280;5558;42.702;23.178;2023-09-08T05:44:11;94192.00;;;28.32;48.50
11011;BME280;5558;42.702;23.178;2023-09-08T05:46:38;94191.69;;;28.14;49.04
11011;BME280;5558;42.702;23.178;2023-09-08T05:49:04;94189.97;;;27.87;49.31
11011;BME280;5558;42.702;23.178;2023-09-08T05:51:32;94198.94;;;27.49;50.56
11011;BME280;5558;42.702;23.178;2023-09-08T05:53:59;94189.53;;;27.12;52.34
11011;BME280;5558;42.702;23.178;2023-09-08T05:56:29;94186.88;;;26.81;53.55
11011;BME280;5558;42.702;23.178;2023-09-08T05:58:56;94165.47;;;26.48;54.74
11011;BME280;5558;42.702;23.178;2023-09-08T06:01:24;94192.41;;;26.69;55.32
11011;BME280;5558;42.702;23.178;2023-09-08T06:03:51;94197.06;;;27.34;53.24
11011;BME280;5558;42.702;23.178;2023-09-08T06:06:19;94196.69;;;27.74;51.08
11011;BME280;5558;42.702;23.178;2023-09-08T06:08:46;94194.22;;;28.04;50.34
11011;BME280;5558;42.702;23.178;2023-09-08T06:11:13;94195.22;;;27.77;50.66
11011;BME280;5558;42.702;23.178;2023-09-08T06:13:40;94197.72;;;27.85;50.78
11011;BME280;5558;42.702;23.178;2023-09-08T06:16:07;94194.38;;;27.03;51.41
11011;BME280;5558;42.702;23.178;2023-09-08T06:18:35;94197.47;;;26.55;53.97
11011;BME280;5558;42.702;23.178;2023-09-08T06:21:05;94192.72;;;26.52;53.68
11011;BME280;5558;42.702;23.178;2023-09-08T06:23:32;94194.69;;;27.33;51.00
11011;BME280;5558;42.702;23.178;2023-09-08T06:25:59;94203.13;;;27.12;50.36
11011;BME280;5558;42.702;23.178;2023-09-08T06:28:26;94202.09;;;27.51;48.74
11011;BME280;5558;42.702;23.178;2023-09-08T06:30:53;94198.97;;;26.68;50.53
11011;BME280;5558;42.702;23.178;2023-09-08T06:33:20;94209.78;;;27.30;50.07
11011;BME280;5558;42.702;23.178;2023-09-08T06:35:48;94213.56;;;27.99;47.09
11011;BME280;5558;42.702;23.178;2023-09-08T06:38:15;94212.97;;;28.28;47.11
11011;BME280;5558;42.702;23.178;2023-09-08T06:40:42;94213.72;;;28.06;45.48
11011;BME280;5558;42.702;23.178;2023-09-08T06:43:08;94223.28;;;28.60;44.68
11011;BME280;5558;42.702;23.178;2023-09-08T06:45:37;94214.09;;;27.16;47.41
11011;BME280;5558;42.702;23.178;2023-09-08T06:48:04;94206.88;;;25.59;47.44
11011;BME280;5558;42.702;23.178;2023-09-08T06:50:31;94210.75;;;24.94;51.03
11011;BME280;5558;42.702;23.178;2023-09-08T06:52:59;94212.94;;;24.20;52.61
11011;BME280;5558;42.702;23.178;2023-09-08T06:55:26;94214.28;;;23.93;53.79
11011;BME280;5558;42.702;23.178;2023-09-08T06:57:53;94203.00;;;23.18;56.91
11011;BME280;5558;42.702;23.178;2023-09-08T07:00:20;94211.75;;;23.15;57.71
11011;BME280;5558;42.702;23.178;2023-09-08T07:02:46;94214.03;;;23.54;57.13
11011;BME280;5558;42.702;23.178;2023-09-08T07:05:15;94214.75;;;23.95;57.11
11011;BME280;5558;42.702;23.178;2023-09-08T07:07:41;94208.44;;;23.38;56.35
11011;BME280;5558;42.702;23.178;2023-09-08T07:10:11;94211.63;;;23.11;60.99
11011;BME280;5558;42.702;23.178;2023-09-08T07:12:37;94214.28;;;22.61;60.64
11011;BME280;5558;42.702;23.178;2023-09-08T07:15:05;94210.78;;;22.69;61.23
11011;BME280;5558;42.702;23.178;2023-09-08T07:17:32;94179.28;;;22.44;60.24
11011;BME280;5558;42.702;23.178;2023-09-08T07:19:58;94224.78;;;22.17;60.13
11011;BME280;5558;42.702;23.178;2023-09-08T07:22:25;94209.13;;;22.02;62.09
11011;BME280;5558;42.702;23.178;2023-09-08T07:24:52;94204.78;;;22.18;61.46
11011;BME280;5558;42.702;23.178;2023-09-08T07:27:20;94213.28;;;21.82;57.37
11011;BME280;5558;42.702;23.178;2023-09-08T07:29:46;94216.78;;;21.83;58.92
11011;BME280;5558;42.702;23.178;2023-09-08T07:32:15;94203.31;;;21.57;56.01
11011;BME280;5558;42.702;23.178;2023-09-08T07:34:41;94212.97;;;21.66;57.38
11011;BME280;5558;42.702;23.178;2023-09-08T07:37:08;94207.09;;;21.73;56.28
11011;BME280;5558;42.702;23.178;2023-09-08T07:39:35;94209.00;;;21.81;56.65
11011;BME280;5558;42.702;23.178;2023-09-08T07:42:02;94209.44;;;22.09;56.43
11011;BME280;5558;42.702;23.178;2023-09-08T07:44:30;94210.00;;;22.23;56.90
11011;BME280;5558;42.702;23.178;2023-09-08T07:46:56;94204.25;;;21.87;54.50
11011;BME280;5558;42.702;23.178;2023-09-08T07:49:23;94214.88;;;21.83;54.78
11011;BME280;5558;42.702;23.178;2023-09-08T07:51:50;94199.44;;;22.01;54.96
11011;BME280;5558;42.702;23.178;2023-09-08T07:54:16;94205.63;;;22.47;55.02
11011;BME280;5558;42.702;23.178;2023-09-08T07:56:43;94209.50;;;22.67;53.03
11011;BME280;5558;42.702;23.178;2023-09-08T07:59:10;94205.22;;;22.28;53.17
11011;BME280;5558;42.702;23.178;2023-09-08T08:01:38;94206.88;;;22.50;54.60
11011;BME280;5558;42.702;23.178;2023-09-08T08:04:04;94202.72;;;22.23;53.99
11011;BME280;5558;42.702;23.178;2023-09-08T08:06:31;94210.22;;;22.47;52.83
11011;BME280;5558;42.702;23.178;2023-09-08T08:08:58;94209.91;;;22.48;52.81
11011;BME280;5558;42.702;23.178;2023-09-08T08:11:24;94206.00;;;22.66;52.18
11011;BME280;5558;42.702;23.178;2023-09-08T08:13:52;94201.78;;;22.57;50.66
11011;BME280;5558;42.702;23.178;2023-09-08T08:16:18;94207.00;;;22.62;52.82
11011;BME280;5558;42.702;23.178;2023-09-08T08:18:48;94211.38;;;22.75;50.51
11011;BME280;5558;42.702;23.178;2023-09-08T08:21:15;94193.59;;;23.03;50.41
11011;BME280;5558;42.702;23.178;2023-09-08T08:23:42;94206.63;;;23.22;49.87
11011;BME280;5558;42.702;23.178;2023-09-08T08:26:08;94194.50;;;23.07;50.51
11011;BME280;5558;42.702;23.178;2023-09-08T08:28:35;94179.16;;;23.20;49.51
11011;BME280;5558;42.702;23.178;2023-09-08T08:31:02;94190.88;;;23.03;48.53
11011;BME280;5558;42.702;23.178;2023-09-08T08:33:29;94186.59;;;23.23;51.08
11011;BME280;5558;42.702;23.178;2023-09-08T08:35:57;94190.56;;;23.25;48.10
11011;BME280;5558;42.702;23.178;2023-09-08T08:38:23;94190.88;;;23.03;46.84
11011;BME280;5558;42.702;23.178;2023-09-08T08:40:50;94189.72;;;23.33;49.05
11011;BME280;5558;42.702;23.178;2023-09-08T08:43:17;94187.69;;;23.30;48.51
11011;BME280;5558;42.702;23.178;2023-09-08T08:45:46;94183.72;;;23.48;48.13
11011;BME280;5558;42.702;23.178;2023-09-08T08:48:15;94168.75;;;23.51;47.97
11011;BME280;5558;42.702;23.178;2023-09-08T08:50:44;94187.50;;;23.35;48.15
11011;BME280;5558;42.702;23.178;2023-09-08T08:53:12;94180.22;;;23.07;49.40
11011;BME280;5558;42.702;23.178;2023-09-08T08:55:39;94176.44;;;23.20;50.96
11011;BME280;5558;42.702;23.178;2023-09-08T08:58:07;94181.25;;;22.93;49.97
11011;BME280;5558;42.702;23.178;2023-09-08T09:00:34;94173.28;;;22.97;52.75
11011;BME280;5558;42.702;23.178;2023-09-08T09:03:04;94173.66;;;22.87;51.77
11011;BME280;5558;42.702;23.178;2023-09-08T09:05:32;94169.06;;;22.58;51.61
11011;BME280;5558;42.702;23.178;2023-09-08T09:07:59;94172.25;;;22.52;52.35
11011;BME280;5558;42.702;23.178;2023-09-08T09:10:30;94181.53;;;22.42;51.61
11011;BME280;5558;42.702;23.178;2023-09-08T09:12:57;94176.09;;;22.51;52.22
11011;BME280;5558;42.702;23.178;2023-09-08T09:15:33;94178.97;;;22.46;52.69
11011;BME280;5558;42.702;23.178;2023-09-08T09:18:03;94184.03;;;22.47;54.49
11011;BME280;5558;42.702;23.178;2023-09-08T09:20:30;94189.88;;;22.20;52.45
11011;BME280;5558;42.702;23.178;2023-09-08T09:22:57;94145.84;;;21.99;53.26
11011;BME280;5558;42.702;23.178;2023-09-08T09:25:25;94187.56;;;22.39;53.65
11011;BME280;5558;42.702;23.178;2023-09-08T09:27:54;94183.09;;;22.43;52.41
11011;BME280;5558;42.702;23.178;2023-09-08T09:30:22;94175.69;;;22.69;50.78
11011;BME280;5558;42.702;23.178;2023-09-08T09:32:58;94177.59;;;22.69;50.43
11011;BME280;5558;42.702;23.178;2023-09-08T09:35:39;94162.53;;;22.68;51.79
11011;BME280;5558;42.702;23.178;2023-09-08T09:38:06;94181.16;;;22.52;51.72
11011;BME280;5558;42.702;23.178;2023-09-08T09:40:33;94169.66;;;22.72;52.11
11011;BME280;5558;42.702;23.178;2023-09-08T09:43:02;94168.78;;;22.80;51.36
11011;BME280;5558;42.702;23.178;2023-09-08T09:45:29;94166.38;;;22.87;52.66
11011;BME280;5558;42.702;23.178;2023-09-08T09:47:56;94160.81;;;22.84;54.00
11011;BME280;5558;42.702;23.178;2023-09-08T09:50:28;94158.88;;;22.93;53.01
11011;BME280;5558;42.702;23.178;2023-09-08T09:52:57;94161.69;;;22.97;52.61
11011;BME280;5558;42.702;23.178;2023-09-08T09:55:25;94163.53;;;22.84;49.71
11011;BME280;5558;42.702;23.178;2023-09-08T09:57:55;94160.84;;;22.55;50.59
11011;BME280;5558;42.702;23.178;2023-09-08T10:00:24;94159.44;;;22.78;51.62
11011;BME280;5558;42.702;23.178;2023-09-08T10:02:52;94149.03;;;22.68;50.75
11011;BME280;5558;42.702;23.178;2023-09-08T10:05:19;94148.63;;;22.98;51.69
11011;BME280;5558;42.702;23.178;2023-09-08T10:07:47;94151.41;;;22.90;50.76
11011;BME280;5558;42.702;23.178;2023-09-08T10:10:13;94148.63;;;22.98;51.83
11011;BME280;5558;42.702;23.178;2023-09-08T10:12:43;94130.31;;;23.25;51.05
11011;BME280;5558;42.702;23.178;2023-09-08T10:15:10;94139.97;;;23.14;49.79
11011;BME280;5558;42.702;23.178;2023-09-08T10:17:40;94141.53;;;22.94;51.25
11011;BME280;5558;42.702;23.178;2023-09-08T10:20:09;94135.72;;;22.83;52.48
11011;BME280;5558;42.702;23.178;2023-09-08T10:22:39;94133.31;;;22.90;52.17
11011;BME280;5558;42.702;23.178;2023-09-08T10:25:08;94127.56;;;22.92;53.18
11011;BME280;5558;42.702;23.178;2023-09-08T10:27:36;94143.44;;;23.14;51.14
11011;BME280;5558;42.702;23.178;2023-09-08T10:30:04;94124.41;;;23.31;51.12
11011;BME280;5558;42.702;23.178;2023-09-08T10:32:32;94124.47;;;23.23;51.97
11011;BME280;5558;42.702;23.178;2023-09-08T10:35:02;94132.63;;;23.14;51.69
11011;BME280;5558;42.702;23.178;2023-09-08T10:37:29;94125.88;;;23.29;52.41
11011;BME280;5558;42.702;23.178;2023-09-08T10:40:23;94125.38;;;23.27;51.75
11011;BME280;5558;42.702;23.178;2023-09-08T10:43:05;94124.00;;;23.41;52.18
11011;BME280;5558;42.702;23.178;2023-09-08T10:45:32;94134.38;;;23.19;52.54
11011;BME280;5558;42.702;23.178;2023-09-08T10:47:59;94115.41;;;23.07;54.62
11011;BME280;5558;42.702;23.178;2023-09-08T10:50:31;94119.94;;;22.94;52.10
11011;BME280;5558;42.702;23.178;2023-09-08T10:53:06;94113.50;;;22.86;54.11
11011;BME280;5558;42.702;23.178;2023-09-08T10:55:36;94112.75;;;23.19;53.69
11011;BME280;5558;42.702;23.178;2023-09-08T10:58:04;94109.06;;;23.03;53.47
11011;BME280;5558;42.702;23.178;2023-09-08T11:00:43;94113.22;;;23.00;53.56
11011;BME280;5558;42.702;23.178;2023-09-08T11:03:10;94102.94;;;22.93;55.60
11011;BME280;5558;42.702;23.178;2023-09-08T11:05:38;94086.81;;;22.85;53.31
11011;BME280;5558;42.702;23.178;2023-09-08T11:08:05;94100.69;;;22.95;54.76
11011;BME280;5558;42.702;23.178;2023-09-08T11:10:32;94102.59;;;22.95;52.79
11011;BME280;5558;42.702;23.178;2023-09-08T11:12:59;94107.56;;;23.14;55.78
11011;BME280;5558;42.702;23.178;2023-09-08T11:15:28;94101.22;;;22.89;52.28
11011;BME280;5558;42.702;23.178;2023-09-08T11:17:55;94129.16;;;22.93;53.57
11011;BME280;5558;42.702;23.178;2023-09-08T11:20:26;94085.91;;;22.81;53.58
11011;BME280;5558;42.702;23.178;2023-09-08T11:22:54;94102.16;;;22.93;52.55
11011;BME280;5558;42.702;23.178;2023-09-08T11:25:21;94089.38;;;23.02;52.99
11011;BME280;5558;42.702;23.178;2023-09-08T11:27:48;94096.16;;;23.29;53.92
11011;BME280;5558;42.702;23.178;2023-09-08T11:30:16;94097.31;;;23.40;52.66
11011;BME280;5558;42.702;23.178;2023-09-08T11:32:43;94122.19;;;23.66;52.56
11011;BME280;5558;42.702;23.178;2023-09-08T11:35:10;94106.69;;;23.54;50.94
11011;BME280;5558;42.702;23.178;2023-09-08T11:37:39;94094.16;;;23.38;51.41
11011;BME280;5558;42.702;23.178;2023-09-08T11:40:09;94081.91;;;23.40;52.05
11011;BME280;5558;42.702;23.178;2023-09-08T11:42:38;94088.09;;;23.53;52.29
11011;BME280;5558;42.702;23.178;2023-09-08T11:45:10;94087.31;;;23.40;51.18
11011;BME280;5558;42.702;23.178;2023-09-08T11:47:39;94094.31;;;23.53;50.32
11011;BME280;5558;42.702;23.178;2023-09-08T11:50:08;94079.88;;;23.49;50.22
11011;BME280;5558;42.702;23.178;2023-09-08T11:52:35;94104.53;;;23.48;48.89
11011;BME280;5558;42.702;23.178;2023-09-08T11:55:02;94094.19;;;23.50;49.56
11011;BME280;5558;42.702;23.178;2023-09-08T11:57:31;94074.25;;;23.54;49.61
11011;BME280;5558;42.702;23.178;2023-09-08T11:59:58;94073.97;;;23.80;50.48
11011;BME280;5558;42.702;23.178;2023-09-08T12:02:26;94074.75;;;23.68;50.41
11011;BME280;5558;42.702;23.178;2023-09-08T12:04:53;94072.75;;;23.77;50.24
11011;BME280;5558;42.702;23.178;2023-09-08T12:07:20;94067.56;;;23.84;52.27
11011;BME280;5558;42.702;23.178;2023-09-08T12:09:47;94067.34;;;23.89;50.06
11011;BME280;5558;42.702;23.178;2023-09-08T12:12:14;94072.28;;;23.75;49.98
11011;BME280;5558;42.702;23.178;2023-09-08T12:14:42;94059.91;;;23.86;50.36
11011;BME280;5558;42.702;23.178;2023-09-08T12:17:09;94071.56;;;24.11;50.12
11011;BME280;5558;42.702;23.178;2023-09-08T12:19:38;94069.50;;;24.32;50.27
11011;BME280;5558;42.702;23.178;2023-09-08T12:22:06;94055.09;;;24.28;49.82
11011;BME280;5558;42.702;23.178;2023-09-08T12:25:07;94049.56;;;24.25;49.96
11011;BME280;5558;42.702;23.178;2023-09-08T12:27:36;94039.50;;;24.37;45.69
11011;BME280;5558;42.702;23.178;2023-09-08T12:30:05;94064.13;;;24.08;46.08
11011;BME280;5558;42.702;23.178;2023-09-08T12:32:34;94028.59;;;23.97;45.78
11011;BME280;5558;42.702;23.178;2023-09-08T12:35:03;94054.06;;;24.33;47.54
11011;BME280;5558;42.702;23.178;2023-09-08T12:37:32;94036.41;;;24.75;47.42
11011;BME280;5558;42.702;23.178;2023-09-08T12:40:00;94035.22;;;24.88;47.26
11011;BME280;5558;42.702;23.178;2023-09-08T12:42:27;94034.91;;;24.89;48.05
11011;BME280;5558;42.702;23.178;2023-09-08T12:44:54;94046.75;;;24.85;45.90
11011;BME280;5558;42.702;23.178;2023-09-08T12:47:22;94024.31;;;24.84;47.08
11011;BME280;5558;42.702;23.178;2023-09-08T12:49:49;94029.72;;;25.12;46.90
11011;BME280;5558;42.702;23.178;2023-09-08T12:52:17;94036.13;;;24.92;45.49
11011;BME280;5558;42.702;23.178;2023-09-08T12:54:43;94025.84;;;24.97;45.46
11011;BME280;5558;42.702;23.178;2023-09-08T12:57:10;94033.13;;;24.81;45.89
11011;BME280;5558;42.702;23.178;2023-09-08T12:59:37;94032.00;;;25.10;46.49
11011;BME280;5558;42.702;23.178;2023-09-08T13:02:04;94041.06;;;25.02;47.51